createdAt,value
2018-06-15T00:01:49.510Z,96.60
2018-06-15T00:04:17.831Z,96.70
2018-06-15T00:06:46.130Z,96.70
2018-06-15T00:09:14.454Z,96.70
2018-06-15T00:11:42.761Z,96.70
2018-06-15T00:14:11.087Z,96.90
2018-06-15T00:16:39.387Z,96.80
2018-06-15T00:19:07.712Z,96.80
2018-06-15T00:21:36.014Z,96.80
2018-06-15T00:24:04.336Z,96.80
2018-06-15T00:26:32.639Z,96.90
2018-06-15T00:29:00.964Z,96.90
2018-06-15T00:31:29.268Z,96.90
2018-06-15T00:33:57.640Z,96.90
2018-06-15T00:36:25.930Z,96.90
2018-06-15T00:38:54.250Z,97.00
2018-06-15T00:41:22.547Z,97.00
2018-06-15T00:43:50.102Z,96.90
2018-06-15T00:46:18.398Z,97.10
2018-06-15T00:48:46.746Z,97.20
2018-06-15T00:51:15.050Z,97.20
2018-06-15T00:53:43.384Z,97.20
2018-06-15T00:56:11.687Z,97.30
2018-06-15T00:58:40.020Z,97.30
2018-06-15T01:01:08.334Z,97.40
2018-06-15T01:03:36.674Z,97.40
2018-06-15T01:06:04.975Z,97.40
2018-06-15T01:08:33.270Z,97.60
2018-06-15T01:11:01.590Z,97.70
2018-06-15T01:13:29.890Z,98.10
2018-06-15T01:15:58.207Z,97.70
2018-06-15T01:18:26.498Z,97.70
2018-06-15T01:20:54.814Z,97.80
2018-06-15T01:23:23.111Z,98.20
2018-06-15T01:25:50.663Z,97.80
2018-06-15T01:28:18.974Z,97.80
2018-06-15T01:30:47.295Z,97.80
2018-06-15T01:33:15.598Z,97.90
2018-06-15T01:35:43.915Z,97.90
2018-06-15T01:38:12.214Z,97.90
2018-06-15T01:40:40.543Z,97.90
2018-06-15T01:43:08.854Z,98.00
2018-06-15T01:45:37.175Z,98.00
2018-06-15T01:48:05.479Z,97.90
2018-06-15T01:50:33.812Z,98.10
2018-06-15T01:53:02.121Z,98.20
2018-06-15T01:55:30.438Z,98.10
2018-06-15T01:57:58.735Z,98.10
2018-06-15T02:00:27.056Z,98.10
2018-06-15T02:02:55.359Z,98.10
2018-06-15T02:05:23.687Z,98.20
2018-06-15T02:07:52.050Z,98.20
2018-06-15T02:10:20.330Z,98.30
2018-06-15T02:12:48.632Z,98.30
2018-06-15T02:15:16.956Z,98.30
2018-06-15T02:17:44.488Z,98.30
2018-06-15T02:20:12.815Z,98.20
2018-06-15T02:22:41.116Z,98.30
2018-06-15T02:25:09.438Z,98.40
2018-06-15T02:27:37.737Z,98.30
2018-06-15T02:30:06.056Z,98.30
2018-06-15T02:32:34.363Z,98.30
2018-06-15T02:35:02.690Z,98.30
2018-06-15T02:37:30.218Z,98.30
2018-06-15T02:39:58.544Z,98.50
2018-06-15T02:42:26.842Z,98.50
2018-06-15T02:44:55.159Z,98.60
2018-06-15T02:47:23.468Z,98.60
2018-06-15T02:49:51.789Z,98.60
2018-06-15T02:52:20.090Z,98.60
2018-06-15T02:54:48.406Z,98.60
2018-06-15T02:57:16.697Z,99.00
2018-06-15T02:59:44.267Z,98.60
2018-06-15T03:02:12.561Z,98.70
2018-06-15T03:04:40.878Z,98.70
2018-06-15T03:07:09.198Z,98.80
2018-06-15T03:09:37.506Z,98.80
2018-06-15T03:12:05.828Z,98.70
2018-06-15T03:14:34.134Z,98.70
2018-06-15T03:17:01.690Z,98.70
2018-06-15T03:19:29.974Z,98.70
2018-06-15T03:21:58.286Z,98.70
2018-06-15T03:24:26.570Z,98.70
2018-06-15T03:26:54.890Z,98.60
2018-06-15T03:29:23.183Z,98.60
2018-06-15T03:31:51.493Z,98.60
2018-06-15T03:34:19.779Z,98.60
2018-06-15T03:36:48.095Z,98.60
2018-06-15T03:39:16.391Z,98.70
2018-06-15T03:41:44.705Z,98.60
2018-06-15T03:44:12.990Z,98.60
2018-06-15T03:46:41.310Z,98.60
2018-06-15T03:49:09.606Z,98.60
2018-06-15T03:51:37.942Z,98.60
2018-06-15T03:54:05.470Z,98.60
2018-06-15T03:56:33.784Z,98.60
2018-06-15T03:59:02.090Z,98.50
2018-06-15T04:01:30.416Z,98.60
2018-06-15T04:03:58.695Z,98.60
2018-06-15T04:06:27.015Z,98.60
2018-06-15T04:08:55.307Z,98.60
2018-06-15T04:11:23.621Z,98.60
2018-06-15T04:13:51.922Z,98.60
2018-06-15T04:16:20.247Z,98.50
2018-06-15T04:18:48.542Z,98.50
2018-06-15T04:21:16.858Z,98.40
2018-06-15T04:23:45.157Z,98.30
2018-06-15T04:26:13.469Z,98.20
2018-06-15T04:28:40.995Z,98.60
2018-06-15T04:31:09.307Z,98.00
2018-06-15T04:33:37.626Z,97.90
2018-06-15T04:36:05.948Z,97.80
2018-06-15T04:38:34.240Z,97.70
2018-06-15T04:41:02.550Z,97.60
2018-06-15T04:43:30.077Z,97.60
2018-06-15T04:45:58.382Z,97.50
2018-06-15T04:48:26.682Z,97.40
2018-06-15T04:50:54.995Z,97.50
2018-06-15T04:53:22.524Z,97.40
2018-06-15T04:55:50.843Z,97.30
2018-06-15T04:58:19.134Z,97.10
2018-06-15T05:00:47.422Z,96.90
2018-06-15T05:03:15.791Z,96.60
2018-06-15T05:05:44.042Z,96.50
2018-06-15T05:08:12.354Z,96.40
2018-06-15T05:10:40.654Z,96.30
2018-06-15T05:13:08.970Z,96.20
2018-06-15T05:15:37.281Z,96.10
2018-06-15T05:18:05.659Z,96.00
2018-06-15T05:20:33.947Z,95.90
2018-06-15T05:23:01.507Z,95.90
2018-06-15T05:25:29.034Z,95.60
2018-06-15T05:27:57.343Z,95.10
2018-06-15T05:30:25.637Z,94.90
2018-06-15T05:32:53.999Z,94.40
2018-06-15T05:35:22.291Z,93.90
2018-06-15T05:37:50.691Z,93.40
2018-06-15T05:40:19.051Z,93.00
2018-06-15T05:42:47.374Z,92.50
2018-06-15T05:45:15.678Z,92.00
2018-06-15T05:47:43.994Z,91.50
2018-06-15T05:50:12.289Z,91.10
2018-06-15T05:52:40.615Z,90.60
2018-06-15T05:55:08.903Z,90.90
2018-06-15T05:57:37.226Z,90.80
2018-06-15T06:00:05.522Z,90.80
2018-06-15T06:02:33.845Z,90.30
2018-06-15T06:05:02.133Z,90.20
2018-06-15T06:07:30.446Z,90.40
2018-06-15T06:09:58.738Z,90.40
2018-06-15T06:12:27.058Z,90.00
2018-06-15T06:14:54.587Z,90.00
2018-06-15T06:17:22.133Z,90.00
2018-06-15T06:19:50.448Z,90.00
2018-06-15T06:22:18.763Z,89.70
2018-06-15T06:24:47.058Z,89.10
2018-06-15T06:27:15.370Z,88.50
2018-06-15T06:29:43.662Z,87.00
2018-06-15T06:32:11.982Z,85.00
2018-06-15T06:34:40.263Z,83.10
2018-06-15T06:37:08.651Z,82.20
2018-06-15T06:39:36.980Z,81.70
2018-06-15T06:42:05.295Z,80.90
2018-06-15T06:44:33.583Z,80.40
2018-06-15T06:47:01.122Z,80.40
2018-06-15T06:49:29.414Z,80.80
2018-06-15T06:51:57.737Z,81.90
2018-06-15T06:54:26.031Z,81.80
2018-06-15T06:56:53.560Z,81.80
2018-06-15T06:59:21.884Z,80.80
2018-06-15T07:01:50.170Z,81.30
2018-06-15T07:04:18.483Z,80.70
2018-06-15T07:06:46.782Z,79.70
2018-06-15T07:09:15.106Z,79.00
2018-06-15T07:11:43.403Z,78.20
2018-06-15T07:14:11.717Z,77.00
2018-06-15T07:16:40.007Z,76.60
2018-06-15T07:19:07.559Z,76.60
2018-06-15T07:21:35.847Z,74.40
2018-06-15T07:24:04.171Z,71.70
2018-06-15T07:26:32.468Z,70.00
2018-06-15T07:29:00.051Z,69.30
2018-06-15T07:31:28.358Z,69.10
2018-06-15T07:33:56.674Z,67.20
2018-06-15T07:36:24.196Z,67.10
2018-06-15T07:38:52.512Z,65.30
2018-06-15T07:41:20.820Z,63.20
2018-06-15T07:43:49.132Z,61.30
2018-06-15T07:46:17.421Z,60.20
2018-06-15T07:48:45.743Z,59.90
2018-06-15T07:51:14.029Z,59.70
2018-06-15T07:53:41.579Z,59.70
2018-06-15T07:56:09.881Z,60.00
2018-06-15T07:58:38.194Z,60.00
2018-06-15T08:01:06.490Z,60.40
2018-06-15T08:03:34.812Z,61.10
2018-06-15T08:06:03.102Z,61.90
2018-06-15T08:08:31.445Z,63.90
2018-06-15T08:10:59.736Z,64.60
2018-06-15T08:13:28.046Z,62.60
2018-06-15T08:15:56.345Z,61.00
2018-06-15T08:18:24.756Z,59.90
2018-06-15T08:20:53.050Z,60.70
2018-06-15T08:23:21.362Z,60.60
2018-06-15T08:25:49.657Z,60.60
2018-06-15T08:28:17.966Z,61.10
2018-06-15T08:30:46.260Z,62.20
2018-06-15T08:33:13.804Z,62.20
2018-06-15T08:35:42.098Z,62.50
2018-06-15T08:38:10.412Z,62.80
2018-06-15T08:40:38.710Z,62.30
2018-06-15T08:43:07.022Z,62.30
2018-06-15T08:45:35.315Z,62.00
2018-06-15T08:48:03.641Z,61.20
2018-06-15T08:50:31.938Z,60.90
2018-06-15T08:53:00.222Z,59.40
2018-06-15T08:55:28.541Z,58.10
2018-06-15T08:57:56.829Z,57.80
2018-06-15T09:00:25.146Z,57.30
2018-06-15T09:02:53.452Z,56.60
2018-06-15T09:05:21.770Z,56.40
2018-06-15T09:07:50.058Z,54.80
2018-06-15T09:10:18.376Z,53.80
2018-06-15T09:12:46.658Z,54.20
2018-06-15T09:15:14.982Z,54.90
2018-06-15T09:17:43.284Z,54.20
2018-06-15T09:20:11.671Z,54.00
2018-06-15T09:22:40.146Z,54.40
2018-06-15T09:25:08.465Z,52.30
2018-06-15T09:27:36.778Z,51.40
2018-06-15T09:30:05.096Z,50.70
2018-06-15T09:32:33.406Z,51.60
2018-06-15T09:35:01.718Z,52.90
2018-06-15T09:37:29.243Z,52.90
2018-06-15T09:39:57.565Z,52.40
2018-06-15T09:42:25.854Z,52.60
2018-06-15T09:44:54.270Z,51.20
2018-06-15T09:47:22.679Z,51.70
2018-06-15T09:49:51.090Z,51.50
2018-06-15T09:52:19.546Z,51.70
2018-06-15T09:54:47.940Z,51.00
2018-06-15T09:57:16.234Z,49.80
2018-06-15T09:59:44.548Z,49.90
2018-06-15T10:02:12.842Z,50.80
2018-06-15T10:04:41.170Z,51.60
2018-06-15T10:07:09.457Z,52.30
2018-06-15T10:09:37.777Z,52.20
2018-06-15T10:12:06.079Z,52.50
2018-06-15T10:14:34.393Z,52.50
2018-06-15T10:17:02.695Z,52.30
2018-06-15T10:19:31.010Z,52.10
2018-06-15T10:21:59.314Z,51.00
2018-06-15T10:24:27.661Z,49.80
2018-06-15T10:26:55.956Z,48.80
2018-06-15T10:29:24.286Z,47.60
2018-06-15T10:31:52.579Z,47.20
2018-06-15T10:34:20.887Z,47.10
2018-06-15T10:36:49.186Z,47.10
2018-06-15T10:39:17.560Z,46.30
2018-06-15T10:41:45.811Z,44.90
2018-06-15T10:44:14.108Z,45.10
2018-06-15T10:46:42.428Z,43.90
2018-06-15T10:49:10.721Z,43.50
2018-06-15T10:51:39.036Z,43.80
2018-06-15T10:54:07.347Z,43.20
2018-06-15T10:56:35.660Z,42.90
2018-06-15T10:59:03.950Z,41.60
2018-06-15T11:01:32.266Z,41.00
2018-06-15T11:04:00.571Z,40.30
2018-06-15T11:06:28.886Z,39.60
2018-06-15T11:08:57.237Z,39.50
2018-06-15T11:11:25.538Z,40.70
2018-06-15T11:13:53.835Z,41.90
2018-06-15T11:16:22.246Z,42.20
2018-06-15T11:18:50.543Z,40.70
2018-06-15T11:21:18.863Z,42.00
2018-06-15T11:23:48.169Z,43.50
2018-06-15T11:26:16.491Z,44.00
2018-06-15T11:28:44.789Z,43.80
2018-06-15T11:31:13.144Z,44.50
2018-06-15T11:33:41.423Z,44.90
2018-06-15T11:36:09.739Z,45.00
2018-06-15T11:38:38.039Z,45.40
2018-06-15T11:41:06.411Z,45.70
2018-06-15T11:43:34.675Z,45.40
2018-06-15T11:46:02.226Z,45.40
2018-06-15T11:48:30.522Z,45.60
2018-06-15T11:50:58.852Z,45.70
2018-06-15T11:53:27.153Z,45.30
2018-06-15T11:55:55.474Z,45.80
2018-06-15T11:58:23.767Z,46.50
2018-06-15T12:00:52.085Z,45.80
2018-06-15T12:03:20.388Z,45.30
2018-06-15T12:05:48.708Z,44.20
2018-06-15T12:08:17.002Z,43.80
2018-06-15T12:10:45.319Z,43.30
2018-06-15T12:13:13.615Z,42.40
2018-06-15T12:15:41.936Z,42.70
2018-06-15T12:18:10.239Z,42.80
2018-06-15T12:20:38.558Z,43.00
2018-06-15T12:23:06.847Z,43.60
2018-06-15T12:25:35.174Z,43.80
2018-06-15T12:28:03.470Z,42.80
2018-06-15T12:30:31.778Z,42.10
2018-06-15T12:33:00.076Z,40.60
2018-06-15T12:35:28.388Z,40.00
2018-06-15T12:37:56.689Z,40.00
2018-06-15T12:40:25.020Z,41.00
2018-06-15T12:42:53.315Z,41.80
2018-06-15T12:45:21.610Z,42.70
2018-06-15T12:47:49.937Z,43.00
2018-06-15T12:50:18.231Z,43.00
2018-06-15T12:52:46.550Z,43.10
2018-06-15T12:55:14.846Z,42.80
2018-06-15T12:57:43.165Z,43.90
2018-06-15T13:00:11.466Z,44.80
2018-06-15T13:02:39.777Z,45.50
2018-06-15T13:05:08.073Z,43.90
2018-06-15T13:07:36.385Z,42.70
2018-06-15T13:10:04.671Z,42.20
2018-06-15T13:12:32.996Z,42.50
2018-06-15T13:15:01.294Z,42.10
2018-06-15T13:17:29.606Z,41.70
2018-06-15T13:19:57.906Z,39.60
2018-06-15T13:22:26.217Z,39.50
2018-06-15T13:24:54.514Z,38.00
2018-06-15T13:27:22.837Z,38.10
2018-06-15T13:29:51.137Z,38.40
2018-06-15T13:32:19.465Z,37.90
2018-06-15T13:34:47.762Z,37.20
2018-06-15T13:37:16.074Z,37.80
2018-06-15T13:39:44.454Z,38.70
2018-06-15T13:42:12.708Z,37.60
2018-06-15T13:44:41.002Z,37.40
2018-06-15T13:47:09.319Z,37.30
2018-06-15T13:49:36.847Z,37.30
2018-06-15T13:52:05.159Z,36.70
2018-06-15T13:54:33.454Z,37.30
2018-06-15T13:57:01.770Z,36.90
2018-06-15T13:59:30.118Z,35.90
2018-06-15T14:01:58.442Z,37.20
2018-06-15T14:04:26.734Z,37.80
2018-06-15T14:06:55.049Z,37.40
2018-06-15T14:09:23.363Z,38.00
2018-06-15T14:11:51.678Z,39.10
2018-06-15T14:14:19.966Z,39.20
2018-06-15T14:16:48.283Z,38.10
2018-06-15T14:19:16.610Z,37.20
2018-06-15T14:21:44.922Z,37.30
2018-06-15T14:24:13.220Z,37.60
2018-06-15T14:26:41.534Z,38.50
2018-06-15T14:29:09.825Z,39.00
2018-06-15T14:31:38.166Z,40.50
2018-06-15T14:34:06.447Z,40.50
2018-06-15T14:36:34.802Z,39.80
2018-06-15T14:39:03.098Z,39.10
2018-06-15T14:41:31.382Z,38.50
2018-06-15T14:43:59.690Z,36.80
2018-06-15T14:46:27.988Z,36.00
2018-06-15T14:48:56.306Z,36.70
2018-06-15T14:51:24.598Z,35.90
2018-06-15T14:53:52.914Z,35.90
2018-06-15T14:56:21.213Z,34.60
2018-06-15T14:58:49.530Z,33.20
2018-06-15T15:01:17.863Z,32.70
2018-06-15T15:03:46.176Z,33.20
2018-06-15T15:06:14.474Z,32.60
2018-06-15T15:08:42.793Z,32.60
2018-06-15T15:11:11.094Z,32.90
2018-06-15T15:13:39.410Z,33.70
2018-06-15T15:16:07.706Z,34.50
2018-06-15T15:18:36.024Z,35.40
2018-06-15T15:21:04.320Z,34.60
2018-06-15T15:23:32.639Z,33.70
2018-06-15T15:26:00.932Z,34.20
2018-06-15T15:28:29.250Z,34.80
2018-06-15T15:30:57.540Z,35.10
2018-06-15T15:33:25.854Z,35.60
2018-06-15T15:35:54.159Z,36.40
2018-06-15T15:38:21.711Z,36.40
2018-06-15T15:40:50.005Z,38.50
2018-06-15T15:43:18.323Z,38.50
2018-06-15T15:45:46.607Z,39.50
2018-06-15T15:48:14.918Z,39.80
2018-06-15T15:50:43.214Z,39.80
2018-06-15T15:53:11.534Z,40.30
2018-06-15T15:55:39.830Z,41.20
2018-06-15T15:58:08.143Z,41.60
2018-06-15T16:00:36.434Z,41.70
2018-06-15T16:03:04.747Z,41.90
2018-06-15T16:05:33.042Z,42.00
2018-06-15T16:08:01.359Z,41.60
2018-06-15T16:10:29.655Z,42.20
2018-06-15T16:12:57.962Z,41.30
2018-06-15T16:15:26.260Z,40.90
2018-06-15T16:17:54.584Z,41.30
2018-06-15T16:20:22.883Z,41.60
2018-06-15T16:22:51.204Z,42.30
2018-06-15T16:25:19.498Z,42.60
2018-06-15T16:27:47.811Z,42.70
2018-06-15T16:30:16.100Z,42.10
2018-06-15T16:32:44.410Z,41.80
2018-06-15T16:35:12.699Z,41.70
2018-06-15T16:37:40.988Z,42.00
2018-06-15T16:40:09.309Z,41.70
2018-06-15T16:42:37.607Z,41.90
2018-06-15T16:45:05.921Z,42.30
2018-06-15T16:47:34.223Z,42.60
2018-06-15T16:50:02.539Z,43.40
2018-06-15T16:52:30.822Z,44.40
2018-06-15T16:54:59.139Z,44.40
2018-06-15T16:57:27.422Z,45.10
2018-06-15T16:59:55.739Z,45.30
2018-06-15T17:02:24.032Z,44.00
2018-06-15T17:04:52.349Z,42.70
2018-06-15T17:07:20.643Z,41.60
2018-06-15T17:09:48.975Z,40.60
2018-06-15T17:12:17.275Z,39.40
2018-06-15T17:14:45.587Z,37.10
2018-06-15T17:17:13.885Z,35.80
2018-06-15T17:19:42.205Z,35.60
2018-06-15T17:22:10.502Z,35.60
2018-06-15T17:24:38.818Z,36.70
2018-06-15T17:27:07.112Z,38.40
2018-06-15T17:29:35.422Z,39.10
2018-06-15T17:32:03.715Z,39.00
2018-06-15T17:34:32.023Z,39.60
2018-06-15T17:37:00.315Z,38.30
2018-06-15T17:39:28.626Z,38.20
2018-06-15T17:41:56.918Z,38.20
2018-06-15T17:44:25.231Z,37.80
2018-06-15T17:46:53.527Z,38.60
2018-06-15T17:49:21.844Z,39.80
2018-06-15T17:51:50.139Z,41.50
2018-06-15T17:54:18.445Z,43.00
2018-06-15T17:56:46.747Z,44.90
2018-06-15T17:59:15.062Z,45.90
2018-06-15T18:01:43.362Z,46.40
2018-06-15T18:04:11.674Z,46.50
2018-06-15T18:06:39.962Z,47.20
2018-06-15T18:09:08.275Z,47.40
2018-06-15T18:11:36.574Z,47.90
2018-06-15T18:14:04.882Z,48.10
2018-06-15T18:16:33.171Z,48.90
2018-06-15T18:19:01.487Z,49.70
2018-06-15T18:21:29.778Z,50.40
2018-06-15T18:23:58.096Z,51.30
2018-06-15T18:26:26.386Z,52.20
2018-06-15T18:28:54.696Z,52.20
2018-06-15T18:31:22.991Z,52.60
2018-06-15T18:33:51.329Z,52.40
2018-06-15T18:36:19.619Z,52.30
2018-06-15T18:38:47.920Z,53.00
2018-06-15T18:41:16.234Z,53.30
2018-06-15T18:43:44.535Z,53.60
2018-06-15T18:46:12.856Z,54.20
2018-06-15T18:48:41.190Z,53.90
2018-06-15T18:51:09.487Z,54.10
2018-06-15T18:53:37.075Z,54.10
2018-06-15T18:56:05.390Z,54.80
2018-06-15T18:58:32.941Z,54.80
2018-06-15T19:01:01.268Z,55.50
2018-06-15T19:03:29.563Z,55.60
2018-06-15T19:05:57.874Z,55.60
2018-06-15T19:08:26.167Z,55.40
2018-06-15T19:10:54.485Z,55.50
2018-06-15T19:13:22.782Z,55.70
2018-06-15T19:15:51.106Z,55.60
2018-06-15T19:18:19.398Z,55.70
2018-06-15T19:20:47.706Z,56.20
2018-06-15T19:23:15.998Z,56.30
2018-06-15T19:25:44.304Z,56.90
2018-06-15T19:28:12.599Z,56.40
2018-06-15T19:30:40.920Z,56.40
2018-06-15T19:33:09.223Z,56.60
2018-06-15T19:35:37.541Z,57.00
2018-06-15T19:38:05.859Z,57.80
2018-06-15T19:40:34.180Z,58.80
2018-06-15T19:43:02.462Z,59.70
2018-06-15T19:45:30.811Z,60.00
2018-06-15T19:47:59.106Z,60.40
2018-06-15T19:50:27.430Z,60.20
2018-06-15T19:52:55.733Z,60.70
2018-06-15T19:55:24.058Z,61.30
2018-06-15T19:57:52.368Z,61.70
2018-06-15T20:00:20.694Z,62.10
2018-06-15T20:02:49.057Z,62.30
2018-06-15T20:05:17.375Z,62.50
2018-06-15T20:07:45.722Z,62.90
2018-06-15T20:10:14.049Z,63.90
2018-06-15T20:12:42.345Z,65.30
2018-06-15T20:15:10.667Z,65.60
2018-06-15T20:17:38.955Z,65.90
2018-06-15T20:20:07.268Z,66.30
2018-06-15T20:22:35.569Z,67.00
2018-06-15T20:25:03.882Z,67.20
2018-06-15T20:27:32.170Z,68.20
2018-06-15T20:30:00.504Z,68.60
2018-06-15T20:32:28.791Z,68.90
2018-06-15T20:34:57.086Z,69.60
2018-06-15T20:37:25.399Z,70.10
2018-06-15T20:39:53.696Z,70.70
2018-06-15T20:42:22.003Z,71.30
2018-06-15T20:44:49.535Z,71.30
2018-06-15T20:47:17.852Z,72.80
2018-06-15T20:49:46.147Z,72.40
2018-06-15T20:52:14.463Z,72.90
2018-06-15T20:54:42.751Z,74.00
2018-06-15T20:57:11.062Z,74.40
2018-06-15T20:59:39.367Z,74.90
2018-06-15T21:02:07.692Z,75.40
2018-06-15T21:04:35.984Z,76.10
2018-06-15T21:07:04.293Z,76.50
2018-06-15T21:09:32.578Z,76.70
2018-06-15T21:12:00.891Z,76.80
2018-06-15T21:14:29.191Z,77.00
2018-06-15T21:16:57.507Z,77.20
2018-06-15T21:19:25.809Z,77.10
2018-06-15T21:21:54.130Z,77.00
2018-06-15T21:24:22.418Z,77.70
2018-06-15T21:26:50.731Z,77.00
2018-06-15T21:29:19.031Z,77.20
2018-06-15T21:31:47.347Z,76.80
2018-06-15T21:34:15.641Z,76.80
2018-06-15T21:36:43.965Z,77.10
2018-06-15T21:39:12.269Z,77.80
2018-06-15T21:41:40.581Z,77.90
2018-06-15T21:44:08.870Z,78.50
2018-06-15T21:46:37.182Z,78.90
2018-06-15T21:49:05.475Z,79.30
2018-06-15T21:51:33.794Z,79.80
2018-06-15T21:54:02.100Z,80.20
2018-06-15T21:56:30.422Z,80.60
2018-06-15T21:58:58.717Z,80.90
2018-06-15T22:01:27.034Z,80.90
2018-06-15T22:03:55.330Z,81.40
2018-06-15T22:06:22.876Z,81.40
2018-06-15T22:08:51.175Z,82.40
2018-06-15T22:11:19.486Z,82.80
2018-06-15T22:13:47.788Z,83.40
2018-06-15T22:16:16.106Z,84.00
2018-06-15T22:18:44.398Z,84.30
2018-06-15T22:21:12.727Z,84.70
2018-06-15T22:23:41.024Z,84.90
2018-06-15T22:26:09.344Z,85.00
2018-06-15T22:28:37.644Z,84.80
2018-06-15T22:31:05.940Z,84.50
2018-06-15T22:33:34.258Z,84.20
2018-06-15T22:36:01.792Z,84.20
2018-06-15T22:38:30.112Z,84.10
2018-06-15T22:40:58.415Z,84.20
2018-06-15T22:43:26.731Z,84.70
2018-06-15T22:45:55.038Z,85.10
2018-06-15T22:48:23.354Z,85.30
2018-06-15T22:50:51.650Z,85.80
2018-06-15T22:53:19.963Z,86.20
2018-06-15T22:55:48.260Z,86.80
2018-06-15T22:58:16.582Z,87.20
2018-06-15T23:00:44.878Z,87.60
2018-06-15T23:03:13.191Z,88.10
2018-06-15T23:05:41.479Z,88.30
2018-06-15T23:08:09.798Z,88.30
2018-06-15T23:10:38.091Z,88.40
2018-06-15T23:13:05.642Z,88.40
2018-06-15T23:15:33.934Z,89.20
2018-06-15T23:18:02.254Z,89.70
2018-06-15T23:20:30.543Z,90.00
2018-06-15T23:22:58.854Z,90.10
2018-06-15T23:25:27.150Z,90.10
2018-06-15T23:27:55.463Z,90.30
2018-06-15T23:30:23.753Z,90.50
2018-06-15T23:32:52.066Z,90.60
2018-06-15T23:35:20.366Z,90.50
2018-06-15T23:37:48.672Z,90.70
2018-06-15T23:40:16.961Z,90.60
2018-06-15T23:42:45.269Z,90.80
2018-06-15T23:45:13.575Z,91.40
2018-06-15T23:47:41.896Z,91.10
2018-06-15T23:50:10.199Z,91.10
2018-06-15T23:52:38.521Z,91.20
2018-06-15T23:55:06.818Z,91.00
2018-06-15T23:57:35.131Z,91.10
